Shoal Cove, Canada
Current Conditions -  °F | °C
As of 7:00 AM on Saturday 20 Dec 2014 (Local Time) from CYBX Reporting Station
Clear Clear  
Wind Chill:   Ceiling: Unl
Heat Index: 18°   Visibility: 15mi
Dew Point: 10°   Wind: 15mph
Humidity: 73%   Direction: 360°N
Pressure: 30.17"   Gusts: 22mph
Location:  51.02°N, 57.02°W
Report Text: CYBX 201000Z 36013G19KT 15SM SKC M08/M12 A3017 RMK SLP220
Loading
Personal Weather Stations






























Interactive Weather Map New forecast layout! Learn more

10-Day Weather Forecast

Advertisements
Track Severe Weather on mobile